createdAt,value
2023-03-27T10:01:28.280Z,83
2023-03-27T10:21:24.665Z,85
2023-03-27T10:41:29.460Z,86
2023-03-27T11:01:25.653Z,80
2023-03-27T11:21:25.676Z,77
2023-03-27T11:41:29.453Z,75
2023-03-27T12:01:35.046Z,71
2023-03-27T12:21:33.901Z,70
2023-03-27T12:41:25.524Z,71
2023-03-27T13:01:38.965Z,69
2023-03-27T13:21:36.601Z,75
2023-03-27T13:41:28.130Z,75
2023-03-27T14:01:34.867Z,73
2023-03-27T14:21:39.121Z,74
2023-03-27T14:41:31.273Z,70
2023-03-27T15:01:25.211Z,64
2023-03-27T15:21:37.782Z,66
2023-03-27T15:41:37.939Z,68
2023-03-27T16:01:45.376Z,70
2023-03-27T16:21:31.272Z,61
2023-03-27T16:41:25.484Z,61
2023-03-27T17:01:30.965Z,62
2023-03-27T17:21:36.001Z,64
2023-03-27T17:41:33.391Z,64
2023-03-27T18:00:57.980Z,65
2023-03-27T18:21:00.604Z,69
2023-03-27T18:40:58.543Z,70
2023-03-27T19:00:58.191Z,70
2023-03-27T19:20:59.073Z,70
2023-03-27T19:40:59.759Z,76
2023-03-27T20:00:58.438Z,82
2023-03-27T20:21:04.015Z,84
2023-03-27T20:41:12.304Z,85
2023-03-27T21:00:58.613Z,86
2023-03-27T21:20:58.417Z,84
2023-03-27T21:40:59.148Z,85
2023-03-27T22:01:02.507Z,85
2023-03-27T22:21:02.292Z,85
2023-03-27T22:41:02.339Z,86
2023-03-27T23:00:57.152Z,84
2023-03-27T23:21:11.462Z,82
2023-03-27T23:40:58.812Z,82
